Time;durP1;ratioP1;P1;durP2;ratioP2;P2;SDS_P1;SDS_P2;PMS_P1;PMS_P2;Temp;Humidity;BMP_temperature;BMP_pressure;BME280_temperature;BME280_humidity;BME280_pressure;Samples;Min_cycle;Max_cycle;Signal;HPM_P1;HPM_P2
2021/05/06 00:33:40;;;;;;;3.28;1.35;;;4.70;99.90;;;;;;5007822;28;20030;-79
2021/05/06 00:36:05;;;;;;;5.40;2.30;;;4.70;99.90;;;;;;5007445;28;20474;-79
2021/05/06 00:38:40;;;;;;;8.70;2.92;;;4.70;99.90;;;;;;5004854;28;20037;-78
2021/05/06 00:44:10;;;;;;;6.75;2.22;;;4.70;99.90;;;;;;5023690;28;20060;-78
2021/05/06 00:54:34;;;;;;;6.43;2.00;;;4.80;99.90;;;;;;5025080;28;20029;-79
2021/05/06 01:02:35;;;;;;;6.45;2.70;;;4.90;99.90;;;;;;5022163;28;20030;-77
2021/05/06 01:05:08;;;;;;;7.53;2.40;;;4.90;99.90;;;;;;5001572;28;20026;-78
2021/05/06 01:12:43;;;;;;;6.65;4.63;;;4.70;99.90;;;;;;5006060;28;20180;-77
2021/05/06 01:15:10;;;;;;;8.82;5.15;;;4.70;99.90;;;;;;5011092;28;20178;-77
2021/05/06 01:17:36;;;;;;;5.85;3.55;;;4.70;99.90;;;;;;5009663;28;20026;-77
2021/05/06 01:20:04;;;;;;;6.70;3.78;;;4.70;99.90;;;;;;5007104;28;20022;-77
2021/05/06 01:22:30;;;;;;;6.40;4.18;;;4.80;99.90;;;;;;5025745;28;20026;-76
2021/05/06 01:24:58;;;;;;;6.85;5.18;;;4.70;99.90;;;;;;4993508;28;20052;-77
2021/05/06 01:27:36;;;;;;;6.28;4.43;;;4.70;99.90;;;;;;5009267;28;20018;-77
2021/05/06 01:32:36;;;;;;;7.88;4.72;;;4.60;99.90;;;;;;5004666;28;20039;-79
2021/05/06 01:35:06;;;;;;;5.95;4.38;;;4.60;99.90;;;;;;4974693;28;20022;-79
2021/05/06 01:37:40;;;;;;;5.63;3.90;;;4.70;99.90;;;;;;5021091;28;20044;-79
2021/05/06 01:40:25;;;;;;;7.82;4.68;;;4.60;99.90;;;;;;5027073;28;20085;-79
2021/05/06 01:43:02;;;;;;;7.78;5.00;;;4.60;99.90;;;;;;4997818;28;20058;-79
2021/05/06 02:01:06;;;;;;;8.93;6.25;;;4.50;99.90;;;;;;5006050;28;20061;-76
2021/05/06 02:03:33;;;;;;;7.03;5.85;;;4.50;99.90;;;;;;5003381;28;20125;-76
2021/05/06 02:06:00;;;;;;;7.70;6.72;;;4.40;99.90;;;;;;5005966;28;20501;-77
2021/05/06 02:08:26;;;;;;;13.38;6.88;;;4.40;99.90;;;;;;5002986;28;20050;-76
2021/05/06 02:11:00;;;;;;;9.20;7.20;;;4.40;99.90;;;;;;4990854;28;20040;-76
2021/05/06 02:13:42;;;;;;;9.30;6.85;;;4.40;99.90;;;;;;4985884;28;20441;-78
2021/05/06 02:16:17;;;;;;;9.65;7.10;;;4.30;99.90;;;;;;5001239;28;20077;-78
2021/05/06 02:18:44;;;;;;;9.73;5.10;;;4.30;99.90;;;;;;4992137;28;20057;-77
2021/05/06 02:21:15;;;;;;;8.75;5.03;;;4.20;99.90;;;;;;5004105;28;20301;-78
2021/05/06 02:23:41;;;;;;;6.50;4.57;;;4.10;99.90;;;;;;4989948;28;20080;-78
2021/05/06 02:26:07;;;;;;;5.93;3.38;;;4.10;99.90;;;;;;5003431;28;20101;-77
2021/05/06 02:28:32;;;;;;;4.80;3.50;;;4.10;99.90;;;;;;4973371;28;20053;-78
2021/05/06 02:30:58;;;;;;;5.55;3.80;;;4.10;99.90;;;;;;4987442;28;20034;-77
2021/05/06 02:33:23;;;;;;;4.05;2.92;;;4.10;99.90;;;;;;5022980;28;20041;-78
2021/05/06 02:35:49;;;;;;;4.18;3.17;;;4.10;99.90;;;;;;4991931;28;20030;-78
2021/05/06 02:38:15;;;;;;;2.67;2.20;;;4.10;99.90;;;;;;5005641;28;20034;-78
2021/05/06 02:40:40;;;;;;;3.50;2.33;;;4.10;99.90;;;;;;5018151;28;20068;-78
2021/05/06 02:43:06;;;;;;;3.63;2.10;;;4.10;99.90;;;;;;4973192;28;20124;-78
2021/05/06 02:45:31;;;;;;;3.60;2.33;;;4.20;99.90;;;;;;5020874;28;20026;-78
2021/05/06 02:47:57;;;;;;;3.42;2.00;;;4.20;99.90;;;;;;5022622;28;20466;-78
2021/05/06 02:50:24;;;;;;;4.00;2.08;;;4.20;99.90;;;;;;5020970;28;20037;-77
2021/05/06 02:53:03;;;;;;;3.85;2.13;;;4.10;99.90;;;;;;4989468;28;20056;-78
2021/05/06 02:58:13;;;;;;;4.13;2.47;;;4.20;99.90;;;;;;5007933;28;20406;-78
2021/05/06 03:03:23;;;;;;;3.60;1.52;;;4.40;99.90;;;;;;5022946;28;20390;-78
2021/05/06 03:06:15;;;;;;;2.90;1.48;;;4.40;99.90;;;;;;5019463;28;20034;-79
2021/05/06 03:08:44;;;;;;;2.38;1.00;;;4.50;99.90;;;;;;4943548;29;20493;-79
2021/05/06 03:24:26;;;;;;;3.08;1.63;;;4.40;99.90;;;;;;4939662;29;20434;-79
2021/05/06 03:26:53;;;;;;;4.90;1.48;;;4.30;99.90;;;;;;4941478;29;20121;-78
2021/05/06 03:29:35;;;;;;;4.57;2.38;;;4.20;99.90;;;;;;4923930;29;20028;-79
2021/05/06 03:42:45;;;;;;;2.45;1.42;;;3.90;99.90;;;;;;4935306;29;20036;-77
2021/05/06 03:48:06;;;;;;;3.03;1.52;;;3.80;99.90;;;;;;5019341;28;20101;-76
2021/05/06 04:13:20;;;;;;;3.28;1.88;;;3.60;99.90;;;;;;5017245;28;20068;-78
2021/05/06 04:18:28;;;;;;;3.30;2.13;;;3.80;99.90;;;;;;5018650;28;20057;-78
2021/05/06 04:27:29;;;;;;;4.00;2.45;;;3.90;99.90;;;;;;4987290;28;20108;-78
2021/05/06 04:37:21;;;;;;;5.55;3.42;;;4.20;99.90;;;;;;5020430;28;20038;-78
2021/05/06 04:39:53;;;;;;;4.70;3.10;;;4.20;99.90;;;;;;5022655;28;20022;-78
2021/05/06 04:45:22;;;;;;;4.88;2.97;;;4.30;99.90;;;;;;5001653;28;20099;-78
2021/05/06 05:03:39;;;;;;;5.43;4.55;;;4.70;99.90;;;;;;5006664;28;20057;-79
2021/05/06 05:06:07;;;;;;;7.00;4.90;;;4.70;99.90;;;;;;5020044;28;20109;-79
2021/05/06 05:08:42;;;;;;;7.75;5.30;;;4.70;99.90;;;;;;5004644;28;20050;-79
2021/05/06 05:14:01;;;;;;;8.82;5.60;;;4.90;99.90;;;;;;5006469;28;20102;-79
2021/05/06 05:27:08;;;;;;;13.18;9.05;;;4.90;99.90;;;;;;5015317;28;20037;-79
2021/05/06 05:29:33;;;;;;;23.02;15.43;;;4.90;99.90;;;;;;5021453;28;20030;-80
2021/05/06 05:32:00;;;;;;;20.33;14.90;;;4.90;99.90;;;;;;4971598;28;20037;-80
2021/05/06 05:34:37;;;;;;;18.55;13.18;;;4.80;99.90;;;;;;4972520;28;20077;-79
2021/05/06 05:37:03;;;;;;;17.40;13.00;;;4.90;99.90;;;;;;5018415;28;20385;-78
2021/05/06 05:42:13;;;;;;;17.02;11.68;;;4.90;99.90;;;;;;4979720;28;20082;-79
2021/05/06 05:54:33;;;;;;;14.93;9.88;;;5.10;99.90;;;;;;5002034;28;20100;-79
2021/05/06 05:55:24;;;;;;;22.10;14.73;;;5.20;99.90;;;;;;5003585;28;20030;-79
2021/05/06 05:57:52;;;;;;;15.88;11.48;;;5.20;99.90;;;;;;5022133;28;20082;-79
2021/05/06 06:00:19;;;;;;;19.83;13.80;;;5.40;99.90;;;;;;5000586;28;20030;-79
2021/05/06 06:02:45;;;;;;;18.67;13.30;;;5.30;99.90;;;;;;4972920;28;20030;-80
2021/05/06 06:05:11;;;;;;;17.83;12.45;;;5.30;99.90;;;;;;4987044;28;20117;-79
2021/05/06 06:07:36;;;;;;;18.88;14.27;;;5.40;99.90;;;;;;5024531;28;20440;-80
2021/05/06 06:10:04;;;;;;;21.00;15.45;;;5.50;99.90;;;;;;5021325;28;20053;-79
2021/05/06 06:12:30;;;;;;;24.00;17.00;;;5.30;99.90;;;;;;5007523;28;20037;-79
2021/05/06 06:15:00;;;;;;;18.83;14.25;;;5.40;99.90;;;;;;5020781;28;20030;-79
2021/05/06 06:17:27;;;;;;;20.75;14.48;;;5.40;99.90;;;;;;5017986;28;20030;-79
2021/05/06 06:19:54;;;;;;;20.45;14.63;;;5.60;99.90;;;;;;5005370;28;20034;-80
2021/05/06 06:22:21;;;;;;;19.80;15.07;;;5.70;99.90;;;;;;4989008;28;20034;-80
2021/05/06 06:24:47;;;;;;;20.02;13.27;;;5.80;99.90;;;;;;4988553;28;20090;-79
2021/05/06 06:27:14;;;;;;;14.25;10.00;;;6.00;99.90;;;;;;5000984;28;20030;-79
2021/05/06 06:29:40;;;;;;;24.65;16.50;;;6.00;99.90;;;;;;4991465;28;20125;-78
2021/05/06 06:32:09;;;;;;;20.27;15.27;;;5.80;99.90;;;;;;4999311;28;20463;-77
2021/05/06 06:34:35;;;;;;;21.93;16.17;;;5.70;99.90;;;;;;5019656;28;20041;-77
2021/05/06 06:37:01;;;;;;;21.95;14.52;;;5.70;99.90;;;;;;5004775;28;20290;-78
2021/05/06 06:39:27;;;;;;;22.05;15.05;;;5.70;99.90;;;;;;5002074;28;20025;-77
2021/05/06 06:41:53;;;;;;;19.77;14.93;;;5.80;99.90;;;;;;5003662;28;20026;-77
2021/05/06 06:44:23;;;;;;;22.17;16.25;;;5.80;99.90;;;;;;4988423;28;20052;-78
2021/05/06 06:47:00;;;;;;;20.00;13.88;;;5.80;99.90;;;;;;5007543;28;20325;-78
2021/05/06 06:49:52;;;;;;;18.38;13.73;;;6.00;99.90;;;;;;4985435;28;20033;-77
2021/05/06 06:52:18;;;;;;;23.42;16.63;;;5.90;99.90;;;;;;4983437;28;20062;-77
2021/05/06 06:54:44;;;;;;;25.45;19.33;;;5.90;99.90;;;;;;5001836;28;20057;-77
2021/05/06 06:57:09;;;;;;;25.23;17.88;;;6.00;99.90;;;;;;4985516;28;20097;-77
2021/05/06 06:59:35;;;;;;;19.48;15.82;;;5.90;99.90;;;;;;4984602;28;20089;-78
2021/05/06 07:02:01;;;;;;;20.45;15.05;;;6.00;99.90;;;;;;4968508;28;20062;-77
2021/05/06 07:04:28;;;;;;;17.73;13.82;;;6.20;99.90;;;;;;5013702;28;20022;-78
2021/05/06 07:06:54;;;;;;;17.10;12.80;;;6.40;99.90;;;;;;4998663;28;20065;-77
2021/05/06 07:09:19;;;;;;;17.27;12.52;;;6.50;99.90;;;;;;4975056;28;20049;-77
2021/05/06 07:11:45;;;;;;;21.88;15.82;;;6.50;99.90;;;;;;4985448;28;20095;-78
2021/05/06 07:14:11;;;;;;;23.38;17.00;;;6.50;99.90;;;;;;5021690;28;20022;-77
2021/05/06 07:16:36;;;;;;;21.92;16.88;;;6.50;99.90;;;;;;5002252;28;20036;-77
2021/05/06 07:19:02;;;;;;;20.95;16.55;;;6.40;99.90;;;;;;5021356;28;20018;-77
2021/05/06 07:21:28;;;;;;;20.60;16.17;;;6.40;99.90;;;;;;5002191;28;20052;-77
2021/05/06 07:23:54;;;;;;;24.98;19.38;;;6.50;99.90;;;;;;5005815;28;20089;-77
2021/05/06 07:26:25;;;;;;;27.55;20.00;;;6.40;99.90;;;;;;5019416;28;20036;-77
2021/05/06 07:28:53;;;;;;;24.67;19.58;;;6.50;99.90;;;;;;5003021;28;20034;-77
2021/05/06 07:31:19;;;;;;;23.25;17.23;;;6.50;99.90;;;;;;4990641;28;20033;-80
2021/05/06 07:33:47;;;;;;;20.15;16.20;;;6.70;99.90;;;;;;4987701;28;20021;-80
2021/05/06 07:36:14;;;;;;;19.38;14.90;;;6.80;99.90;;;;;;5021608;28;20025;-80
2021/05/06 07:38:40;;;;;;;21.65;15.52;;;6.90;99.90;;;;;;5001473;28;20030;-79
2021/05/06 07:41:07;;;;;;;18.40;14.45;;;6.70;99.90;;;;;;5002803;28;20030;-79
2021/05/06 07:43:33;;;;;;;17.25;14.13;;;6.70;99.90;;;;;;5019001;28;20034;-78
2021/05/06 07:45:59;;;;;;;18.45;12.90;;;6.80;99.90;;;;;;4981095;28;20022;-77
2021/05/06 07:48:25;;;;;;;17.90;13.05;;;6.90;99.90;;;;;;4973168;28;20081;-77
2021/05/06 07:50:52;;;;;;;17.77;13.25;;;6.90;99.90;;;;;;5018668;28;20038;-79
2021/05/06 07:53:24;;;;;;;15.52;12.32;;;7.10;99.90;;;;;;5006734;28;20030;-78
2021/05/06 07:55:52;;;;;;;17.15;11.95;;;7.50;99.90;;;;;;4998698;28;20128;-77
2021/05/06 07:58:17;;;;;;;13.52;10.68;;;7.50;99.90;;;;;;4984991;28;20058;-78
2021/05/06 08:00:43;;;;;;;16.45;13.68;;;7.60;99.90;;;;;;4982151;28;20052;-79
2021/05/06 08:03:09;;;;;;;13.15;10.43;;;7.40;99.90;;;;;;4984961;28;20142;-78
2021/05/06 08:05:35;;;;;;;11.90;8.73;;;7.60;99.90;;;;;;4998211;28;20031;-78
2021/05/06 08:08:01;;;;;;;15.32;12.02;;;7.50;99.90;;;;;;5004832;28;20109;-78
2021/05/06 08:10:28;;;;;;;13.20;9.75;;;7.40;99.90;;;;;;5003638;28;20029;-77
2021/05/06 08:12:55;;;;;;;12.23;9.38;;;7.50;99.90;;;;;;5021283;28;20030;-78
2021/05/06 08:15:22;;;;;;;10.93;9.38;;;8.20;99.90;;;;;;5009222;28;20115;-78
2021/05/06 08:17:49;;;;;;;11.52;8.40;;;8.50;99.90;;;;;;5010066;28;20040;-78
2021/05/06 08:20:15;;;;;;;11.57;10.40;;;8.50;99.90;;;;;;5005168;28;20034;-78
2021/05/06 08:22:41;;;;;;;9.70;7.80;;;8.80;99.90;;;;;;4988583;28;20046;-78
2021/05/06 08:25:09;;;;;;;8.25;5.88;;;8.80;99.90;;;;;;5007217;28;20099;-78
2021/05/06 08:27:35;;;;;;;7.75;5.25;;;8.50;99.90;;;;;;5024991;28;20026;-79
2021/05/06 08:30:01;;;;;;;9.07;7.55;;;8.40;99.90;;;;;;5010119;28;20437;-78
2021/05/06 08:32:27;;;;;;;9.32;7.15;;;8.20;99.90;;;;;;5004606;28;20061;-78
2021/05/06 08:34:53;;;;;;;9.98;6.65;;;8.80;99.90;;;;;;5003800;28;20533;-78
2021/05/06 08:37:19;;;;;;;7.85;7.05;;;9.20;99.90;;;;;;5007349;28;20037;-78
2021/05/06 08:39:45;;;;;;;7.07;6.38;;;9.00;99.90;;;;;;5024608;28;20085;-78
2021/05/06 08:42:12;;;;;;;8.18;7.28;;;9.20;99.90;;;;;;5020521;28;20029;-78
2021/05/06 08:44:39;;;;;;;5.35;4.40;;;9.10;99.90;;;;;;5024356;28;20032;-78
2021/05/06 08:47:07;;;;;;;5.13;3.90;;;9.20;99.90;;;;;;5009869;28;20065;-79
2021/05/06 08:49:34;;;;;;;4.72;4.15;;;9.50;99.90;;;;;;4987906;28;20038;-79
2021/05/06 08:52:03;;;;;;;5.53;3.78;;;10.40;99.90;;;;;;5006751;28;20494;-79
2021/05/06 08:54:29;;;;;;;6.68;5.03;;;10.40;99.90;;;;;;4991873;28;20057;-78
2021/05/06 08:56:57;;;;;;;6.35;5.07;;;9.70;99.90;;;;;;5009188;28;20527;-78
2021/05/06 08:59:23;;;;;;;5.30;4.40;;;9.00;99.90;;;;;;4997681;28;20317;-78
2021/05/06 09:01:49;;;;;;;3.55;2.95;;;9.10;99.90;;;;;;5021656;28;20026;-78
2021/05/06 09:04:15;;;;;;;6.18;4.60;;;9.00;99.90;;;;;;4985318;28;20035;-78
2021/05/06 09:06:53;;;;;;;4.72;4.30;;;9.10;99.90;;;;;;5007992;28;20057;-78
2021/05/06 09:09:20;;;;;;;5.65;4.88;;;8.70;99.90;;;;;;5016942;28;20073;-78
2021/05/06 09:11:51;;;;;;;6.78;4.55;;;9.00;99.90;;;;;;4990952;28;20045;-78
2021/05/06 09:14:17;;;;;;;5.65;4.22;;;9.20;99.90;;;;;;4988096;28;20532;-78
2021/05/06 09:16:44;;;;;;;4.43;3.65;;;9.10;99.90;;;;;;5006701;28;20030;-78
2021/05/06 09:19:15;;;;;;;4.20;3.20;;;9.20;99.90;;;;;;5006608;28;20030;-79
2021/05/06 09:21:43;;;;;;;4.18;3.58;;;9.50;99.90;;;;;;4987233;28;20030;-78
2021/05/06 09:24:11;;;;;;;6.15;4.03;;;9.20;99.90;;;;;;5005391;28;20029;-78
2021/05/06 09:26:38;;;;;;;5.65;4.57;;;8.90;99.90;;;;;;5001327;28;20038;-78
2021/05/06 09:29:07;;;;;;;5.70;4.15;;;9.20;99.90;;;;;;5006356;28;20042;-78
2021/05/06 09:31:40;;;;;;;6.30;4.20;;;9.80;99.90;;;;;;5003362;28;20057;-78
2021/05/06 09:34:08;;;;;;;5.85;4.30;;;10.00;99.90;;;;;;5004201;28;20037;-78
2021/05/06 09:36:35;;;;;;;5.25;4.00;;;10.00;99.90;;;;;;5005748;28;20034;-78
2021/05/06 09:39:03;;;;;;;5.45;3.40;;;10.20;99.90;;;;;;5006640;28;20098;-80
2021/05/06 09:41:35;;;;;;;4.53;3.28;;;10.20;99.90;;;;;;5006783;28;20117;-78
2021/05/06 09:44:21;;;;;;;2.65;2.20;;;10.40;99.90;;;;;;5005946;28;20036;-78
2021/05/06 09:46:56;;;;;;;3.17;2.30;;;10.90;99.90;;;;;;5021951;28;20060;-79
2021/05/06 09:49:22;;;;;;;3.83;2.67;;;11.40;99.90;;;;;;4998512;28;20479;-78
2021/05/06 09:52:00;;;;;;;2.80;2.38;;;11.70;99.90;;;;;;5004781;28;20054;-78
2021/05/06 09:54:28;;;;;;;4.03;2.75;;;11.90;99.90;;;;;;5020454;28;20030;-78
2021/05/06 09:57:02;;;;;;;4.22;2.55;;;11.40;99.90;;;;;;4992449;28;20033;-79
2021/05/06 09:59:31;;;;;;;3.55;1.85;;;11.20;99.90;;;;;;5020077;28;20022;-78
2021/05/06 10:02:32;;;;;;;3.78;2.80;;;11.60;99.90;;;;;;5020418;28;20088;-78
2021/05/06 10:08:47;;;;;;;4.47;2.35;;;11.00;99.90;;;;;;4994016;28;20450;-78
2021/05/06 10:11:21;;;;;;;5.38;3.78;;;11.70;99.90;;;;;;4987376;28;20058;-79
2021/05/06 10:13:48;;;;;;;6.57;4.15;;;11.90;99.90;;;;;;4982149;28;20066;-78
2021/05/06 10:16:16;;;;;;;5.68;3.30;;;11.40;99.90;;;;;;4986986;28;20037;-78
2021/05/06 10:18:44;;;;;;;4.85;3.22;;;11.00;99.90;;;;;;4998351;28;20034;-78
2021/05/06 10:21:15;;;;;;;6.07;3.38;;;10.90;99.90;;;;;;5003541;28;20589;-78
2021/05/06 10:23:43;;;;;;;4.47;3.15;;;10.90;99.90;;;;;;4963863;28;20410;-78
2021/05/06 10:26:09;;;;;;;4.28;3.05;;;10.80;99.90;;;;;;5000713;28;20173;-78
2021/05/06 10:28:35;;;;;;;6.40;4.53;;;11.00;99.90;;;;;;4981513;28;20460;-78
2021/05/06 10:31:03;;;;;;;4.10;3.10;;;11.00;99.90;;;;;;5003331;28;20057;-78
2021/05/06 10:33:30;;;;;;;4.95;3.40;;;11.40;99.90;;;;;;4979136;28;20186;-78
2021/05/06 10:35:59;;;;;;;4.43;3.03;;;11.50;99.90;;;;;;5002677;28;20117;-78
2021/05/06 10:38:31;;;;;;;4.82;3.20;;;12.20;99.90;;;;;;5000678;28;20085;-78
2021/05/06 10:40:58;;;;;;;3.70;2.97;;;12.40;99.90;;;;;;4964203;28;20034;-78
2021/05/06 10:43:28;;;;;;;4.93;3.13;;;12.30;99.90;;;;;;4977752;28;20560;-78
2021/05/06 10:46:00;;;;;;;4.38;3.13;;;12.30;99.90;;;;;;4967086;28;20046;-78
2021/05/06 10:49:02;;;;;;;4.75;2.53;;;12.60;99.90;;;;;;4997487;28;20029;-78
2021/05/06 10:51:43;;;;;;;4.53;2.03;;;12.50;99.90;;;;;;4984955;28;20053;-78
2021/05/06 10:54:29;;;;;;;3.25;2.00;;;12.60;99.90;;;;;;4968708;28;20030;-78
2021/05/06 10:56:57;;;;;;;3.10;2.30;;;12.70;99.90;;;;;;5014938;28;20133;-78
2021/05/06 10:59:28;;;;;;;2.47;2.17;;;13.10;99.90;;;;;;4982415;28;20187;-78
2021/05/06 11:01:54;;;;;;;3.80;2.30;;;12.70;99.90;;;;;;4986272;28;20102;-78
2021/05/06 11:04:35;;;;;;;2.78;1.90;;;12.00;99.90;;;;;;4969617;28;20104;-78
2021/05/06 11:07:13;;;;;;;4.47;2.55;;;12.30;99.90;;;;;;4969410;28;20030;-79
2021/05/06 11:09:48;;;;;;;3.25;2.45;;;12.50;99.90;;;;;;5012506;28;20094;-78
2021/05/06 11:12:16;;;;;;;3.95;3.47;;;11.90;99.90;;;;;;5001412;28;20039;-78
2021/05/06 11:15:04;;;;;;;4.65;3.47;;;11.70;99.90;;;;;;5004329;28;20033;-78
2021/05/06 11:17:32;;;;;;;5.25;3.55;;;11.60;99.90;;;;;;4990205;28;20120;-78
2021/05/06 11:19:59;;;;;;;3.63;2.53;;;11.10;99.90;;;;;;5019814;28;20026;-78
2021/05/06 11:22:43;;;;;;;4.40;1.63;;;9.80;99.90;;;;;;4987463;28;20133;-78
2021/05/06 11:25:30;;;;;;;3.47;1.58;;;9.60;99.90;;;;;;4995191;28;20030;-78
2021/05/06 11:28:01;;;;;;;3.22;1.67;;;8.50;99.90;;;;;;5005865;28;20030;-78
2021/05/06 11:30:35;;;;;;;4.28;2.55;;;7.70;99.90;;;;;;4981362;28;20029;-77
2021/05/06 11:33:21;;;;;;;4.43;3.05;;;7.30;99.90;;;;;;5001612;28;20516;-78
2021/05/06 11:36:11;;;;;;;4.15;3.22;;;7.00;99.90;;;;;;5008654;28;20102;-78
2021/05/06 11:38:37;;;;;;;3.50;2.23;;;7.00;99.90;;;;;;4966090;28;20029;-78
2021/05/06 11:41:34;;;;;;;2.40;1.60;;;7.60;99.90;;;;;;4985969;28;20289;-78
2021/05/06 11:44:01;;;;;;;2.83;1.95;;;8.00;99.90;;;;;;4980662;28;20045;-78
2021/05/06 11:46:31;;;;;;;2.30;1.50;;;8.30;99.90;;;;;;5003688;28;20034;-78
2021/05/06 11:49:03;;;;;;;2.43;1.40;;;8.50;99.90;;;;;;5009023;28;20121;-78
2021/05/06 11:51:33;;;;;;;2.13;1.33;;;9.20;99.90;;;;;;5009710;28;20065;-78
2021/05/06 11:54:07;;;;;;;2.60;1.63;;;9.40;99.90;;;;;;5007205;28;20030;-78
2021/05/06 11:56:53;;;;;;;2.03;1.35;;;9.50;99.90;;;;;;5007692;28;20033;-78
2021/05/06 11:59:21;;;;;;;2.67;1.52;;;9.60;99.90;;;;;;5010505;28;20037;-78
2021/05/06 12:01:47;;;;;;;2.67;1.75;;;9.90;99.90;;;;;;5006964;28;20036;-78
2021/05/06 12:04:34;;;;;;;2.67;2.00;;;10.30;99.90;;;;;;4996059;28;20032;-79
2021/05/06 12:07:12;;;;;;;2.58;1.50;;;10.80;99.90;;;;;;5019542;28;20050;-78
2021/05/06 12:09:38;;;;;;;3.28;2.30;;;10.90;99.90;;;;;;5005699;28;20125;-78
2021/05/06 12:12:04;;;;;;;2.50;1.73;;;11.00;99.90;;;;;;5004808;28;20042;-78
2021/05/06 12:14:30;;;;;;;4.65;3.63;;;11.50;99.90;;;;;;5008196;28;20030;-78
2021/05/06 12:16:56;;;;;;;3.80;2.35;;;11.40;99.90;;;;;;5002054;28;20041;-79
2021/05/06 12:19:21;;;;;;;4.68;3.92;;;11.90;99.90;;;;;;5028052;28;20033;-78
2021/05/06 12:21:50;;;;;;;5.07;3.88;;;11.60;99.90;;;;;;5007587;28;20053;-78
2021/05/06 12:24:36;;;;;;;4.05;3.60;;;11.90;99.90;;;;;;5004673;28;20068;-78
2021/05/06 12:27:28;;;;;;;3.45;3.15;;;12.40;99.90;;;;;;5025096;28;20062;-79
2021/05/06 12:29:57;;;;;;;4.00;3.40;;;12.80;99.90;;;;;;5004813;28;20114;-79
2021/05/06 12:32:29;;;;;;;3.42;3.13;;;12.50;99.90;;;;;;5007291;28;20110;-78
2021/05/06 12:34:55;;;;;;;3.60;3.10;;;12.70;99.90;;;;;;5009785;28;20052;-78
2021/05/06 12:37:25;;;;;;;3.75;3.42;;;13.00;99.90;;;;;;5007404;28;20170;-78
2021/05/06 12:39:51;;;;;;;4.03;3.30;;;13.00;99.90;;;;;;5004531;28;20026;-78
2021/05/06 12:42:30;;;;;;;3.40;3.10;;;13.20;99.90;;;;;;5003900;28;20064;-78
2021/05/06 12:44:56;;;;;;;3.42;2.33;;;13.60;99.90;;;;;;5001622;28;20037;-78
2021/05/06 12:47:43;;;;;;;3.47;3.08;;;13.20;99.90;;;;;;5007154;28;20022;-78
2021/05/06 12:50:19;;;;;;;3.85;3.47;;;13.00;99.90;;;;;;5027601;28;20029;-79
2021/05/06 12:52:48;;;;;;;3.17;2.75;;;13.40;99.90;;;;;;5006672;28;20061;-78
2021/05/06 12:55:30;;;;;;;3.50;3.00;;;13.50;99.90;;;;;;5006261;28;20037;-79
2021/05/06 12:58:13;;;;;;;3.40;2.83;;;13.50;99.90;;;;;;5009839;28;20257;-78
2021/05/06 13:00:40;;;;;;;2.80;2.60;;;13.10;99.90;;;;;;4987728;28;20056;-78
2021/05/06 13:03:08;;;;;;;3.30;2.67;;;12.90;99.90;;;;;;5003826;28;20095;-78
2021/05/06 13:05:36;;;;;;;3.10;2.67;;;13.10;99.90;;;;;;5006903;28;20026;-78
2021/05/06 13:08:03;;;;;;;3.08;2.30;;;13.40;99.90;;;;;;5008222;28;20044;-79
2021/05/06 13:10:31;;;;;;;4.30;3.05;;;13.60;99.90;;;;;;4987832;28;20470;-78
2021/05/06 13:12:57;;;;;;;3.75;3.17;;;13.60;99.90;;;;;;5019025;28;20117;-78
2021/05/06 13:15:23;;;;;;;3.22;2.50;;;13.50;99.90;;;;;;5003813;28;20443;-78
2021/05/06 13:17:49;;;;;;;5.28;4.45;;;12.40;99.90;;;;;;5006505;28;20042;-78
2021/05/06 13:20:17;;;;;;;4.05;3.33;;;10.80;99.90;;;;;;5006209;28;20024;-78
2021/05/06 13:23:04;;;;;;;3.20;2.40;;;10.20;99.90;;;;;;4972637;28;20038;-78
2021/05/06 13:25:47;;;;;;;3.70;2.10;;;10.10;99.90;;;;;;5004211;28;20037;-78
2021/05/06 13:28:33;;;;;;;4.93;3.38;;;10.00;99.90;;;;;;5025127;28;20026;-78
2021/05/06 13:31:20;;;;;;;4.10;3.08;;;9.80;99.90;;;;;;4990388;28;20092;-78
2021/05/06 13:33:48;;;;;;;3.17;2.47;;;10.10;99.90;;;;;;5016446;28;20030;-78
2021/05/06 13:36:16;;;;;;;3.53;2.45;;;10.30;99.90;;;;;;5020004;28;20056;-78
2021/05/06 13:39:04;;;;;;;4.20;3.17;;;10.10;99.90;;;;;;4991409;28;20023;-78
2021/05/06 13:41:35;;;;;;;4.47;3.00;;;9.80;99.90;;;;;;5000163;28;20097;-77
2021/05/06 13:44:03;;;;;;;3.90;3.35;;;9.60;99.90;;;;;;5008442;28;20496;-78
2021/05/06 13:46:30;;;;;;;4.78;3.55;;;9.50;99.90;;;;;;5001842;28;20035;-77
2021/05/06 13:48:58;;;;;;;4.35;3.13;;;9.20;99.90;;;;;;5008591;28;20033;-77
2021/05/06 13:51:24;;;;;;;4.68;2.95;;;9.10;99.90;;;;;;5005848;28;20057;-77
2021/05/06 13:53:51;;;;;;;3.92;2.45;;;9.00;99.90;;;;;;4989558;28;20033;-78
2021/05/06 13:56:17;;;;;;;3.40;3.00;;;9.00;99.90;;;;;;5005879;28;20046;-78
2021/05/06 13:58:43;;;;;;;3.85;2.97;;;9.30;99.90;;;;;;5005550;28;20030;-78
2021/05/06 14:01:11;;;;;;;5.63;3.42;;;9.10;99.90;;;;;;5002999;28;21459;-78
2021/05/06 14:03:37;;;;;;;3.83;3.28;;;9.00;99.90;;;;;;5019621;28;20022;-78
2021/05/06 14:06:04;;;;;;;5.57;3.70;;;8.90;99.90;;;;;;5019017;28;20521;-78
2021/05/06 14:08:30;;;;;;;6.13;5.32;;;8.90;99.90;;;;;;5004340;28;20129;-78
2021/05/06 14:10:56;;;;;;;6.43;5.03;;;9.00;99.90;;;;;;5005357;28;20049;-78
2021/05/06 14:13:23;;;;;;;5.20;3.83;;;9.00;99.90;;;;;;5021775;28;20025;-78
2021/05/06 14:15:49;;;;;;;6.57;3.63;;;9.00;99.90;;;;;;4995430;28;20034;-78
2021/05/06 14:18:15;;;;;;;7.78;5.22;;;8.90;99.90;;;;;;5008133;28;20030;-78
2021/05/06 14:20:41;;;;;;;9.48;6.82;;;8.70;99.90;;;;;;5002456;28;20022;-78
2021/05/06 14:23:09;;;;;;;7.85;6.57;;;8.50;99.90;;;;;;5021704;28;20041;-78
2021/05/06 14:25:35;;;;;;;7.10;6.35;;;8.40;99.90;;;;;;5002188;28;20072;-77
2021/05/06 14:28:02;;;;;;;7.57;5.90;;;8.40;99.90;;;;;;5025622;28;20021;-78
2021/05/06 14:30:28;;;;;;;9.00;6.95;;;8.40;99.90;;;;;;5007695;28;20033;-78
2021/05/06 14:32:54;;;;;;;7.28;5.97;;;8.30;99.90;;;;;;5007566;28;20437;-77
2021/05/06 14:35:20;;;;;;;7.30;5.90;;;8.20;99.90;;;;;;4989367;28;20022;-78
2021/05/06 14:37:45;;;;;;;7.88;5.72;;;8.10;99.90;;;;;;5002241;28;20085;-78
2021/05/06 14:40:11;;;;;;;6.10;5.50;;;8.00;99.90;;;;;;5002300;28;20026;-77
2021/05/06 14:42:37;;;;;;;3.80;3.40;;;8.00;99.90;;;;;;5019150;28;20049;-78
2021/05/06 14:45:04;;;;;;;3.58;3.08;;;8.30;99.90;;;;;;5020484;28;20037;-78
2021/05/06 14:47:30;;;;;;;4.70;4.20;;;8.20;99.90;;;;;;5007229;28;20041;-78
2021/05/06 14:49:57;;;;;;;6.00;4.13;;;7.90;99.90;;;;;;4999746;28;20030;-78
2021/05/06 14:52:23;;;;;;;6.55;5.05;;;8.30;99.90;;;;;;5022363;28;20084;-78
2021/05/06 14:54:49;;;;;;;9.43;6.32;;;8.20;99.90;;;;;;4986357;28;20034;-78
2021/05/06 14:57:15;;;;;;;6.95;4.75;;;8.10;99.90;;;;;;5004301;28;20034;-78
2021/05/06 14:59:41;;;;;;;5.10;4.25;;;8.40;99.90;;;;;;4984014;28;20023;-78
2021/05/06 15:02:06;;;;;;;4.82;3.35;;;8.30;99.90;;;;;;5004312;28;20065;-77
2021/05/06 15:04:32;;;;;;;4.53;3.45;;;8.70;99.90;;;;;;4996733;28;20449;-78
2021/05/06 15:07:00;;;;;;;4.68;3.65;;;8.40;99.90;;;;;;4999702;28;20112;-78
2021/05/06 15:09:26;;;;;;;4.63;3.58;;;8.70;99.90;;;;;;5005074;28;20038;-80
2021/05/06 15:11:55;;;;;;;4.00;3.20;;;8.90;99.90;;;;;;5021228;28;20038;-77
2021/05/06 15:14:21;;;;;;;3.38;2.78;;;9.10;99.90;;;;;;5002810;28;20049;-78
2021/05/06 15:16:47;;;;;;;2.33;2.05;;;9.00;99.90;;;;;;5004037;28;20026;-79
2021/05/06 15:19:13;;;;;;;2.92;2.35;;;9.30;99.90;;;;;;5006847;28;20033;-78
2021/05/06 15:21:38;;;;;;;3.00;2.47;;;9.30;99.90;;;;;;5003533;28;20076;-78
2021/05/06 15:24:04;;;;;;;2.47;2.15;;;9.30;99.90;;;;;;4989642;28;20069;-78
2021/05/06 15:26:30;;;;;;;2.75;2.22;;;9.40;99.90;;;;;;5006117;28;20096;-78
2021/05/06 15:28:55;;;;;;;3.08;2.65;;;9.50;99.90;;;;;;5005208;28;20471;-78
2021/05/06 15:31:21;;;;;;;3.10;2.67;;;9.30;99.90;;;;;;5021562;28;20049;-78
2021/05/06 15:33:46;;;;;;;2.88;2.35;;;9.40;99.90;;;;;;5021688;28;20193;-78
2021/05/06 15:36:16;;;;;;;3.47;2.90;;;9.50;99.90;;;;;;5003006;28;20089;-78
2021/05/06 15:38:42;;;;;;;2.67;2.22;;;9.70;99.90;;;;;;5023360;28;20034;-78
2021/05/06 15:41:07;;;;;;;3.42;2.08;;;9.80;99.90;;;;;;5017482;28;20076;-78
2021/05/06 15:43:33;;;;;;;2.88;2.20;;;9.70;99.90;;;;;;5019807;28;20083;-78
2021/05/06 15:45:59;;;;;;;3.72;2.05;;;9.80;99.90;;;;;;4998663;28;20021;-78
2021/05/06 15:48:25;;;;;;;4.20;2.83;;;9.70;99.90;;;;;;5003705;28;20025;-78
2021/05/06 15:50:50;;;;;;;2.40;2.15;;;9.50;99.90;;;;;;5002795;28;20132;-78
2021/05/06 15:53:16;;;;;;;3.78;2.58;;;9.60;99.90;;;;;;4988914;28;20085;-78
2021/05/06 15:55:42;;;;;;;2.88;1.98;;;9.60;99.90;;;;;;5020028;28;20034;-78
2021/05/06 15:58:08;;;;;;;3.00;2.70;;;9.60;99.90;;;;;;5006557;28;20041;-79
2021/05/06 16:00:34;;;;;;;2.40;1.45;;;9.50;99.90;;;;;;5021387;28;20030;-78
2021/05/06 16:03:07;;;;;;;3.78;2.55;;;9.70;99.90;;;;;;4988823;28;20030;-78
2021/05/06 16:05:35;;;;;;;2.90;2.13;;;9.70;99.90;;;;;;5001534;28;20030;-78
2021/05/06 16:08:01;;;;;;;3.33;2.22;;;10.00;99.90;;;;;;5001940;28;20360;-78
2021/05/06 16:10:27;;;;;;;2.65;1.55;;;10.20;99.90;;;;;;5019470;28;20050;-78
2021/05/06 16:12:53;;;;;;;2.25;1.60;;;10.10;99.90;;;;;;5020847;28;20038;-78